createdAt,value
2022-09-25T00:00:04.117Z,43.22
2022-09-25T00:00:25.865Z,42.78
2022-09-25T00:00:49.385Z,41.95
2022-09-25T00:01:12.348Z,41.88
2022-09-25T00:01:34.270Z,42.60
2022-09-25T00:01:56.050Z,44.67
2022-09-25T00:02:17.853Z,40.63
2022-09-25T00:02:39.689Z,43.50
2022-09-25T00:03:01.617Z,42.72
2022-09-25T00:03:26.303Z,42.60
2022-09-25T00:03:48.300Z,42.40
2022-09-25T00:04:10.101Z,42.55
2022-09-25T00:04:32.101Z,40.22
2022-09-25T00:04:53.903Z,39.85
2022-09-25T00:05:16.170Z,42.20
2022-09-25T00:05:42.972Z,40.00
2022-09-25T00:06:18.405Z,41.15
2022-09-25T00:06:41.400Z,40.30
2022-09-25T00:07:03.251Z,41.20
2022-09-25T00:07:25.021Z,41.30
2022-09-25T00:07:46.869Z,42.58
2022-09-25T00:08:09.982Z,42.97
2022-09-25T00:08:33.531Z,40.55
2022-09-25T00:08:56.771Z,44.22
2022-09-25T00:09:21.586Z,44.50
2022-09-25T00:09:43.347Z,40.35
2022-09-25T00:10:05.466Z,44.10
2022-09-25T00:10:29.073Z,45.00
2022-09-25T00:10:51.520Z,42.90
2022-09-25T00:11:17.651Z,39.95
2022-09-25T00:11:39.398Z,43.15
2022-09-25T00:12:01.219Z,45.95
2022-09-25T00:12:22.938Z,43.10
2022-09-25T00:12:44.827Z,37.95
2022-09-25T00:13:06.538Z,41.33
2022-09-25T00:13:28.349Z,41.65
2022-09-25T00:13:52.122Z,42.60
2022-09-25T00:14:13.939Z,47.80
2022-09-25T00:14:36.723Z,43.55
2022-09-25T00:14:58.638Z,41.38
2022-09-25T00:15:20.343Z,38.92
2022-09-25T00:15:53.939Z,41.90
2022-09-25T00:16:19.432Z,43.75
2022-09-25T00:16:41.400Z,41.35
2022-09-25T00:17:03.249Z,42.78
2022-09-25T00:17:26.011Z,39.85
2022-09-25T00:17:48.216Z,40.20
2022-09-25T00:18:09.934Z,40.47
2022-09-25T00:18:50.417Z,40.33
2022-09-25T00:19:39.571Z,41.60
2022-09-25T00:20:01.532Z,38.75
2022-09-25T00:20:26.198Z,41.20
2022-09-25T00:20:48.051Z,43.75
2022-09-25T00:21:12.835Z,36.72
2022-09-25T00:21:38.379Z,41.63
2022-09-25T00:22:00.074Z,38.38
2022-09-25T00:22:24.852Z,36.63
2022-09-25T00:22:47.347Z,40.58
2022-09-25T00:23:09.316Z,39.40
2022-09-25T00:23:31.123Z,44.07
2022-09-25T00:23:53.695Z,44.67
2022-09-25T00:24:15.666Z,41.53
2022-09-25T00:24:37.403Z,42.65
2022-09-25T00:24:59.119Z,39.10
2022-09-25T00:25:20.972Z,39.38
2022-09-25T00:25:43.182Z,38.85
2022-09-25T00:26:06.375Z,38.33
2022-09-25T00:26:30.586Z,40.83
2022-09-25T00:26:53.687Z,40.45
2022-09-25T00:27:16.323Z,39.88
2022-09-25T00:27:38.054Z,40.63
2022-09-25T00:27:59.826Z,38.53
2022-09-25T00:28:21.704Z,39.33
2022-09-25T00:28:44.307Z,41.53
2022-09-25T00:29:07.316Z,37.08
2022-09-25T00:29:30.925Z,37.13
2022-09-25T00:29:53.806Z,36.05
2022-09-25T00:30:15.785Z,36.05
2022-09-25T00:30:40.722Z,37.13
2022-09-25T00:31:04.773Z,38.90
2022-09-25T00:31:29.916Z,38.53
2022-09-25T00:31:51.707Z,43.13
2022-09-25T00:32:15.288Z,40.53
2022-09-25T00:32:37.833Z,36.97
2022-09-25T00:33:00.242Z,35.35
2022-09-25T00:33:22.360Z,36.35
2022-09-25T00:33:44.337Z,39.83
2022-09-25T00:34:06.391Z,37.33
2022-09-25T00:34:28.207Z,39.00
2022-09-25T00:34:49.920Z,40.20
2022-09-25T00:35:11.623Z,37.92
2022-09-25T00:35:34.038Z,37.80
2022-09-25T00:35:55.782Z,35.43
2022-09-25T00:36:19.662Z,35.92
2022-09-25T00:36:41.690Z,39.92
2022-09-25T00:37:03.533Z,37.03
2022-09-25T00:37:26.246Z,38.47
2022-09-25T00:37:48.093Z,37.33
2022-09-25T00:38:10.125Z,37.45
2022-09-25T00:38:35.611Z,37.70
2022-09-25T00:38:58.265Z,36.60
2022-09-25T00:39:20.102Z,36.45
2022-09-25T00:39:41.892Z,36.95
2022-09-25T00:40:05.433Z,34.05
2022-09-25T00:40:27.276Z,35.00
2022-09-25T00:40:49.161Z,34.03
2022-09-25T00:41:10.936Z,37.13
2022-09-25T00:41:33.608Z,38.95
2022-09-25T00:41:55.387Z,37.78
2022-09-25T00:42:21.003Z,38.67
2022-09-25T00:42:42.718Z,37.17
2022-09-25T00:43:09.830Z,37.92
2022-09-25T00:43:40.959Z,36.58
2022-09-25T00:44:24.634Z,34.65
2022-09-25T00:44:56.946Z,34.53
2022-09-25T00:45:21.997Z,36.30
2022-09-25T00:45:44.477Z,30.73
2022-09-25T00:46:30.213Z,31.23
2022-09-25T00:46:52.145Z,30.25
2022-09-25T00:47:18.289Z,33.78
2022-09-25T00:48:08.740Z,32.80
2022-09-25T00:48:31.043Z,34.90
2022-09-25T00:49:07.416Z,35.83
2022-09-25T00:49:29.179Z,30.75
2022-09-25T00:49:54.160Z,31.55
2022-09-25T00:50:42.093Z,33.20
2022-09-25T00:51:05.781Z,33.85
2022-09-25T00:51:45.405Z,31.33
2022-09-25T00:52:12.908Z,29.33
2022-09-25T00:52:34.724Z,30.10
2022-09-25T00:53:09.814Z,30.80
2022-09-25T00:53:40.798Z,33.17
2022-09-25T00:54:07.063Z,30.98
2022-09-25T00:54:36.475Z,29.98
2022-09-25T00:55:03.117Z,31.05
2022-09-25T00:55:25.091Z,30.45
2022-09-25T00:55:46.978Z,30.02
2022-09-25T00:56:11.928Z,27.95
2022-09-25T00:56:41.944Z,30.42
2022-09-25T00:57:08.794Z,27.65
2022-09-25T00:57:33.380Z,31.35
2022-09-25T00:57:56.921Z,30.60
2022-09-25T00:58:22.761Z,31.38
2022-09-25T00:58:44.594Z,32.58
2022-09-25T00:59:09.046Z,30.05
2022-09-25T00:59:34.848Z,31.35
2022-09-25T01:00:01.647Z,34.25
2022-09-25T01:00:23.831Z,29.60
2022-09-25T01:00:45.935Z,31.67
2022-09-25T01:01:12.015Z,30.95
2022-09-25T01:01:33.904Z,31.10
2022-09-25T01:01:56.585Z,30.13
2022-09-25T01:02:28.855Z,30.85
2022-09-25T01:02:54.957Z,32.42
2022-09-25T01:03:18.077Z,30.83
2022-09-25T01:03:42.028Z,32.95
2022-09-25T01:04:03.925Z,31.50
2022-09-25T01:04:29.022Z,32.72
2022-09-25T01:04:51.922Z,33.88
2022-09-25T01:05:19.406Z,31.80
2022-09-25T01:05:45.339Z,32.78
2022-09-25T01:06:07.307Z,34.65
2022-09-25T01:06:29.597Z,32.35
2022-09-25T01:06:51.338Z,30.42
2022-09-25T01:07:14.869Z,30.90
2022-09-25T01:07:40.447Z,31.98
2022-09-25T01:08:05.971Z,31.50
2022-09-25T01:08:29.741Z,32.42
2022-09-25T01:08:51.909Z,32.33
2022-09-25T01:09:13.684Z,31.15
2022-09-25T01:09:38.112Z,31.27
2022-09-25T01:10:02.341Z,34.92
2022-09-25T01:10:24.247Z,32.78
2022-09-25T01:10:46.372Z,31.40
2022-09-25T01:11:08.959Z,30.58
2022-09-25T01:11:31.065Z,32.78
2022-09-25T01:11:53.410Z,34.30
2022-09-25T01:12:15.380Z,33.10
2022-09-25T01:12:43.628Z,30.70
2022-09-25T01:13:06.499Z,37.33
2022-09-25T01:13:29.923Z,36.67
2022-09-25T01:13:55.542Z,34.08
2022-09-25T01:14:17.808Z,32.80
2022-09-25T01:14:40.275Z,34.20
2022-09-25T01:15:02.090Z,39.55
2022-09-25T01:15:46.352Z,37.20
2022-09-25T01:16:39.373Z,36.50
2022-09-25T01:17:19.464Z,34.53
2022-09-25T01:17:46.149Z,35.40
2022-09-25T01:18:42.555Z,37.80
2022-09-25T01:19:45.863Z,38.75
2022-09-25T01:20:23.547Z,39.60
2022-09-25T01:21:21.288Z,45.38
2022-09-25T01:21:51.418Z,37.92
2022-09-25T01:22:47.033Z,40.47
2022-09-25T01:23:34.007Z,41.47
2022-09-25T01:24:17.067Z,42.17
2022-09-25T01:25:04.615Z,40.83
2022-09-25T01:25:39.226Z,38.65
2022-09-25T01:26:22.151Z,36.42
2022-09-25T01:27:28.883Z,36.92
2022-09-25T01:28:13.488Z,35.13
2022-09-25T01:29:07.099Z,33.58
2022-09-25T01:29:47.140Z,37.35
2022-09-25T01:30:18.925Z,33.65
2022-09-25T01:30:46.267Z,36.78
2022-09-25T01:31:40.236Z,35.83
2022-09-25T01:32:22.942Z,37.42
2022-09-25T01:33:38.554Z,36.83
2022-09-25T01:34:12.696Z,36.78
2022-09-25T01:34:59.575Z,35.83
2022-09-25T01:35:45.500Z,38.33
2022-09-25T01:36:28.583Z,37.05
2022-09-25T01:37:19.918Z,36.72
2022-09-25T01:37:45.565Z,34.92
2022-09-25T01:38:32.023Z,36.70
2022-09-25T01:39:10.763Z,40.03
2022-09-25T01:40:18.431Z,35.03
2022-09-25T01:40:51.519Z,39.22
2022-09-25T01:41:35.678Z,39.08
2022-09-25T01:42:45.023Z,37.00
2022-09-25T01:43:20.953Z,38.17
2022-09-25T01:43:51.640Z,39.75
2022-09-25T01:44:24.569Z,36.90
2022-09-25T01:45:14.642Z,35.90
2022-09-25T01:45:48.866Z,38.58
2022-09-25T01:46:18.579Z,38.17
2022-09-25T01:46:48.027Z,34.67
2022-09-25T01:47:14.652Z,34.83
2022-09-25T01:47:41.371Z,32.55
2022-09-25T01:48:09.210Z,36.25
2022-09-25T01:48:33.817Z,36.03
2022-09-25T01:49:08.313Z,34.80
2022-09-25T01:49:35.477Z,35.00
2022-09-25T01:50:12.748Z,32.78
2022-09-25T01:51:00.157Z,37.10
2022-09-25T01:51:28.913Z,33.08
2022-09-25T01:51:55.748Z,36.00
2022-09-25T01:52:26.163Z,33.72
2022-09-25T01:52:52.715Z,36.60
2022-09-25T01:53:19.436Z,38.95
2022-09-25T01:53:52.260Z,32.47
2022-09-25T01:54:20.701Z,37.25
2022-09-25T01:54:51.987Z,38.75
2022-09-25T01:55:39.532Z,38.63
2022-09-25T01:57:02.023Z,34.63
2022-09-25T01:57:46.252Z,37.80
2022-09-25T01:58:33.113Z,34.38
2022-09-25T01:59:00.149Z,35.78
2022-09-25T01:59:31.044Z,36.55
2022-09-25T01:59:58.851Z,36.38
2022-09-25T02:00:25.875Z,35.58
2022-09-25T02:00:55.743Z,33.90
2022-09-25T02:01:27.862Z,34.83
2022-09-25T02:01:56.394Z,31.42
2022-09-25T02:02:23.981Z,34.92
2022-09-25T02:03:12.485Z,34.05
2022-09-25T02:03:48.368Z,37.60
2022-09-25T02:04:36.119Z,31.67
2022-09-25T02:05:02.663Z,36.45
2022-09-25T02:05:38.685Z,34.22
2022-09-25T02:06:05.226Z,35.50
2022-09-25T02:06:30.288Z,35.75
2022-09-25T02:06:56.435Z,34.88
2022-09-25T02:07:30.127Z,33.78
2022-09-25T02:08:02.953Z,36.65
2022-09-25T02:08:34.124Z,31.35
2022-09-25T02:09:10.742Z,33.00
2022-09-25T02:09:42.374Z,35.88
2022-09-25T02:10:15.230Z,37.88
2022-09-25T02:10:49.147Z,38.10
2022-09-25T02:11:13.624Z,35.17
2022-09-25T02:11:44.408Z,37.40
2022-09-25T02:12:17.085Z,37.28
2022-09-25T02:12:51.084Z,35.58
2022-09-25T02:13:18.133Z,33.92
2022-09-25T02:13:48.438Z,37.33
2022-09-25T02:14:23.894Z,34.90
2022-09-25T02:14:57.957Z,34.95
2022-09-25T02:15:40.618Z,32.72
2022-09-25T02:16:18.110Z,32.90
2022-09-25T02:16:44.349Z,33.92
2022-09-25T02:17:12.749Z,32.22
2022-09-25T02:18:26.154Z,31.70
2022-09-25T02:19:07.977Z,31.83
2022-09-25T02:19:49.395Z,32.28
2022-09-25T02:20:30.109Z,32.90
2022-09-25T02:21:38.983Z,31.52
2022-09-25T02:22:15.837Z,31.80
2022-09-25T02:22:40.587Z,34.17
2022-09-25T02:23:18.436Z,33.63
2022-09-25T02:24:04.567Z,33.63
2022-09-25T02:24:39.827Z,31.23
2022-09-25T02:25:11.661Z,34.88
2022-09-25T02:25:48.805Z,35.22
2022-09-25T02:26:25.771Z,32.00
2022-09-25T02:26:51.308Z,31.60
2022-09-25T02:27:15.907Z,32.08
2022-09-25T02:27:37.828Z,33.67
2022-09-25T02:27:59.797Z,32.55
2022-09-25T02:28:23.074Z,31.65
2022-09-25T02:28:45.064Z,31.50
2022-09-25T02:29:08.200Z,32.15
2022-09-25T02:29:30.648Z,33.50
2022-09-25T02:29:53.857Z,31.50
2022-09-25T02:30:16.384Z,31.88
2022-09-25T02:30:38.355Z,28.85
2022-09-25T02:31:03.655Z,32.55
2022-09-25T02:31:35.786Z,32.78
2022-09-25T02:32:10.635Z,33.65
2022-09-25T02:32:35.755Z,31.65
2022-09-25T02:33:02.235Z,32.00
2022-09-25T02:33:27.477Z,28.95
2022-09-25T02:33:50.950Z,29.92
2022-09-25T02:34:15.330Z,31.23
2022-09-25T02:34:41.003Z,31.02
2022-09-25T02:35:03.148Z,31.95
2022-09-25T02:35:28.618Z,30.98
2022-09-25T02:35:57.163Z,28.77
2022-09-25T02:36:24.508Z,27.77
2022-09-25T02:36:48.575Z,29.85
2022-09-25T02:37:18.491Z,30.23
2022-09-25T02:37:42.660Z,28.40
2022-09-25T02:38:11.837Z,30.30
2022-09-25T02:38:38.539Z,31.25
2022-09-25T02:39:05.487Z,32.00
2022-09-25T02:39:30.314Z,33.58
2022-09-25T02:40:03.423Z,31.42
2022-09-25T02:40:44.468Z,31.33
2022-09-25T02:41:56.352Z,30.27
2022-09-25T02:42:39.823Z,30.33
2022-09-25T02:43:17.909Z,31.85
2022-09-25T02:43:45.673Z,29.88
2022-09-25T02:44:12.745Z,34.03
2022-09-25T02:44:43.585Z,33.25
2022-09-25T02:45:17.352Z,32.00
2022-09-25T02:46:03.423Z,31.50
2022-09-25T02:46:46.219Z,35.17
2022-09-25T02:47:35.654Z,36.65
2022-09-25T02:48:11.075Z,38.75
2022-09-25T02:48:51.099Z,35.85
2022-09-25T02:49:51.783Z,37.22
2022-09-25T02:50:25.155Z,37.00
2022-09-25T02:50:55.179Z,38.28
2022-09-25T02:51:42.782Z,37.70
2022-09-25T02:52:08.901Z,37.70
2022-09-25T02:52:51.230Z,34.47
2022-09-25T02:53:13.194Z,35.90
2022-09-25T02:54:18.682Z,36.58
2022-09-25T02:55:21.127Z,37.05
2022-09-25T02:55:49.729Z,37.08
2022-09-25T02:56:17.513Z,37.17
2022-09-25T02:56:50.586Z,36.30
2022-09-25T02:57:45.664Z,34.72
2022-09-25T02:58:19.080Z,37.65
2022-09-25T02:59:00.611Z,40.03
2022-09-25T02:59:32.666Z,38.28
2022-09-25T03:00:05.688Z,35.97
2022-09-25T03:00:28.121Z,38.30
2022-09-25T03:00:54.096Z,34.08
2022-09-25T03:01:21.020Z,34.63
2022-09-25T03:01:44.052Z,35.33
2022-09-25T03:02:06.636Z,37.05
2022-09-25T03:02:36.843Z,37.53
2022-09-25T03:03:03.633Z,35.33
2022-09-25T03:03:27.799Z,38.63
2022-09-25T03:03:53.032Z,34.92
2022-09-25T03:04:17.939Z,37.55
2022-09-25T03:04:42.307Z,36.97
2022-09-25T03:05:15.800Z,38.67
2022-09-25T03:05:38.790Z,39.00
2022-09-25T03:06:02.826Z,35.97
2022-09-25T03:06:26.514Z,37.00
2022-09-25T03:06:58.548Z,36.22
2022-09-25T03:07:26.959Z,38.17
2022-09-25T03:08:07.731Z,39.53
2022-09-25T03:08:40.358Z,35.22
2022-09-25T03:09:07.906Z,37.33
2022-09-25T03:09:34.843Z,38.15
2022-09-25T03:10:02.216Z,39.80
2022-09-25T03:10:24.444Z,37.13
2022-09-25T03:10:46.892Z,37.38
2022-09-25T03:11:15.441Z,37.28
2022-09-25T03:11:49.449Z,36.38
2022-09-25T03:12:16.959Z,35.35
2022-09-25T03:12:39.004Z,36.97
2022-09-25T03:13:19.207Z,35.78
2022-09-25T03:13:42.002Z,40.33
2022-09-25T03:14:06.142Z,39.75
2022-09-25T03:14:28.398Z,38.13
2022-09-25T03:14:50.702Z,36.53
2022-09-25T03:15:13.188Z,38.10
2022-09-25T03:15:37.394Z,35.78
2022-09-25T03:16:14.748Z,36.75
2022-09-25T03:16:47.222Z,37.72
2022-09-25T03:17:10.637Z,35.25
2022-09-25T03:17:33.648Z,37.55
2022-09-25T03:17:56.389Z,36.85
2022-09-25T03:18:18.660Z,36.35
2022-09-25T03:18:40.826Z,37.78
2022-09-25T03:19:03.676Z,36.40
2022-09-25T03:19:28.782Z,35.45
2022-09-25T03:19:53.387Z,37.47
2022-09-25T03:20:15.234Z,41.75
2022-09-25T03:20:37.268Z,40.58
2022-09-25T03:21:01.081Z,38.83
2022-09-25T03:21:23.090Z,37.75
2022-09-25T03:21:45.086Z,36.97
2022-09-25T03:22:10.103Z,34.28
2022-09-25T03:22:31.918Z,38.33
2022-09-25T03:22:53.964Z,35.03
2022-09-25T03:23:17.814Z,33.58
2022-09-25T03:23:42.841Z,37.15
2022-09-25T03:24:07.515Z,34.38
2022-09-25T03:24:29.455Z,33.67
2022-09-25T03:24:52.741Z,34.90
2022-09-25T03:25:17.159Z,35.03
2022-09-25T03:25:39.240Z,36.03
2022-09-25T03:26:04.212Z,35.20
2022-09-25T03:26:27.478Z,35.05
2022-09-25T03:26:49.643Z,34.10
2022-09-25T03:27:11.558Z,28.92
2022-09-25T03:27:36.217Z,33.53
2022-09-25T03:27:58.162Z,32.83
2022-09-25T03:28:20.256Z,31.30
2022-09-25T03:28:42.134Z,32.55
2022-09-25T03:29:04.094Z,34.42
2022-09-25T03:29:25.929Z,33.85
2022-09-25T03:29:53.054Z,35.95
2022-09-25T03:30:15.414Z,34.80
2022-09-25T03:30:41.173Z,33.08
2022-09-25T03:31:11.069Z,35.65
2022-09-25T03:31:37.032Z,36.65
2022-09-25T03:32:01.201Z,37.33
2022-09-25T03:32:23.135Z,37.20
2022-09-25T03:32:46.311Z,32.65
2022-09-25T03:33:12.390Z,32.80
2022-09-25T03:33:40.471Z,33.92
2022-09-25T03:34:02.519Z,32.75
2022-09-25T03:34:24.625Z,32.75
2022-09-25T03:34:46.979Z,32.40
2022-09-25T03:35:31.778Z,33.47
2022-09-25T03:36:42.581Z,33.50
2022-09-25T03:37:04.371Z,36.53
2022-09-25T03:37:58.439Z,34.83
2022-09-25T03:38:25.646Z,32.50
2022-09-25T03:38:49.397Z,29.92
2022-09-25T03:39:11.150Z,33.90
2022-09-25T03:39:32.909Z,34.92
2022-09-25T03:39:54.792Z,34.35
2022-09-25T03:40:16.640Z,34.55
2022-09-25T03:40:38.577Z,36.40
2022-09-25T03:41:00.588Z,39.38
2022-09-25T03:41:22.737Z,38.38
2022-09-25T03:42:23.313Z,34.22
2022-09-25T03:42:45.218Z,33.92
2022-09-25T03:43:28.160Z,34.50
2022-09-25T03:44:08.532Z,33.78
2022-09-25T03:44:30.363Z,33.67
2022-09-25T03:44:52.957Z,35.65
2022-09-25T03:45:14.798Z,30.77
2022-09-25T03:45:36.562Z,32.72
2022-09-25T03:45:58.419Z,32.17
2022-09-25T03:46:23.021Z,31.98
2022-09-25T03:46:44.894Z,32.97
2022-09-25T03:47:06.764Z,32.85
2022-09-25T03:47:28.648Z,33.42
2022-09-25T03:47:54.754Z,33.15
2022-09-25T03:48:17.288Z,33.38
2022-09-25T03:48:45.289Z,28.77
2022-09-25T03:49:22.378Z,33.20
2022-09-25T03:49:50.497Z,33.00
2022-09-25T03:50:12.311Z,30.70
2022-09-25T03:50:34.274Z,32.58
2022-09-25T03:50:56.314Z,34.05
2022-09-25T03:51:19.187Z,33.80
2022-09-25T03:51:42.165Z,26.50
2022-09-25T03:52:04.090Z,28.90
2022-09-25T03:52:25.879Z,31.85
2022-09-25T03:52:48.836Z,30.45
2022-09-25T03:53:10.628Z,31.52
2022-09-25T03:53:36.876Z,31.17
2022-09-25T03:54:04.341Z,32.45
2022-09-25T03:54:47.528Z,29.75
2022-09-25T03:55:09.832Z,33.10
2022-09-25T03:55:32.107Z,30.17
2022-09-25T03:55:54.398Z,29.98
2022-09-25T03:56:18.601Z,31.35
2022-09-25T03:56:40.442Z,30.17
2022-09-25T03:57:02.547Z,29.70
2022-09-25T03:57:25.991Z,32.83
2022-09-25T03:57:48.127Z,32.47
2022-09-25T03:58:10.475Z,30.55
2022-09-25T03:58:32.780Z,30.17
2022-09-25T03:58:55.297Z,32.83
2022-09-25T03:59:17.236Z,35.10
2022-09-25T03:59:38.980Z,32.00
2022-09-25T04:00:02.178Z,30.08
2022-09-25T04:00:24.480Z,30.58
2022-09-25T04:00:46.955Z,32.22
2022-09-25T04:01:08.919Z,36.55
2022-09-25T04:01:31.027Z,33.53
2022-09-25T04:01:52.992Z,31.35
2022-09-25T04:02:15.997Z,28.77
2022-09-25T04:02:37.915Z,30.83
2022-09-25T04:02:59.764Z,31.55
2022-09-25T04:03:22.186Z,35.05
2022-09-25T04:03:47.413Z,35.92
2022-09-25T04:04:10.379Z,34.60
2022-09-25T04:04:32.914Z,34.83
2022-09-25T04:04:55.656Z,35.45
2022-09-25T04:05:19.176Z,34.38
2022-09-25T04:05:42.194Z,32.88
2022-09-25T04:06:06.206Z,31.95
2022-09-25T04:06:28.136Z,36.35
2022-09-25T04:06:50.321Z,35.78
2022-09-25T04:07:12.554Z,37.17
2022-09-25T04:07:34.425Z,33.78
2022-09-25T04:08:00.187Z,38.35
2022-09-25T04:08:26.950Z,35.40
2022-09-25T04:08:49.482Z,36.27
2022-09-25T04:09:11.325Z,38.97
2022-09-25T04:09:33.158Z,36.65
2022-09-25T04:09:55.025Z,32.45
2022-09-25T04:10:17.119Z,33.05
2022-09-25T04:10:39.015Z,35.05
2022-09-25T04:11:01.407Z,37.08
2022-09-25T04:11:26.008Z,35.42
2022-09-25T04:11:47.735Z,39.35
2022-09-25T04:12:09.712Z,38.47
2022-09-25T04:12:31.696Z,35.50
2022-09-25T04:12:54.415Z,33.15
2022-09-25T04:13:17.309Z,33.45
2022-09-25T04:13:42.090Z,32.50
2022-09-25T04:14:04.896Z,33.88
2022-09-25T04:14:26.812Z,38.13
2022-09-25T04:14:48.632Z,34.97
2022-09-25T04:15:10.846Z,35.08
2022-09-25T04:15:33.799Z,33.67
2022-09-25T04:15:56.795Z,34.45
2022-09-25T04:16:21.562Z,32.90
2022-09-25T04:16:43.479Z,31.13
2022-09-25T04:17:05.489Z,31.05
2022-09-25T04:17:29.064Z,34.97
2022-09-25T04:17:52.949Z,35.85
2022-09-25T04:18:14.969Z,34.17
2022-09-25T04:18:37.308Z,32.92
2022-09-25T04:18:59.112Z,35.72
2022-09-25T04:19:21.115Z,36.40
2022-09-25T04:19:43.132Z,36.25
2022-09-25T04:20:05.193Z,35.05
2022-09-25T04:20:27.424Z,33.83
2022-09-25T04:20:53.078Z,36.40
2022-09-25T04:21:16.364Z,38.33
2022-09-25T04:21:38.257Z,35.90
2022-09-25T04:22:00.290Z,35.22
2022-09-25T04:22:22.140Z,39.80
2022-09-25T04:22:44.024Z,38.53
2022-09-25T04:23:05.975Z,39.40
2022-09-25T04:23:28.654Z,40.28
2022-09-25T04:24:10.623Z,43.65
2022-09-25T04:24:50.644Z,39.40
2022-09-25T04:25:15.143Z,39.10
2022-09-25T04:25:37.232Z,38.53
2022-09-25T04:25:59.611Z,40.22
2022-09-25T04:26:21.874Z,42.78
2022-09-25T04:26:44.456Z,38.38
2022-09-25T04:27:08.185Z,39.00
2022-09-25T04:27:30.269Z,38.55
2022-09-25T04:27:57.470Z,39.17
2022-09-25T04:28:19.585Z,35.95
2022-09-25T04:28:44.442Z,40.03
2022-09-25T04:29:06.485Z,40.22
2022-09-25T04:29:29.462Z,39.95
2022-09-25T04:29:53.851Z,43.47
2022-09-25T04:30:16.337Z,43.33
2022-09-25T04:30:38.492Z,43.88
2022-09-25T04:31:01.167Z,42.85
2022-09-25T04:31:23.326Z,40.00
2022-09-25T04:32:05.359Z,41.55
2022-09-25T04:32:45.717Z,41.00
2022-09-25T04:33:27.650Z,36.05
2022-09-25T04:33:49.712Z,42.80
2022-09-25T04:34:14.159Z,45.88
2022-09-25T04:34:36.276Z,40.88
2022-09-25T04:34:58.692Z,42.03
2022-09-25T04:35:21.062Z,40.75
2022-09-25T04:35:46.147Z,40.03
2022-09-25T04:36:08.103Z,38.33
2022-09-25T04:36:30.283Z,40.05
2022-09-25T04:36:52.923Z,45.25
2022-09-25T04:37:15.045Z,41.72
2022-09-25T04:37:37.166Z,41.88
2022-09-25T04:37:59.245Z,40.08
2022-09-25T04:38:22.235Z,39.22
2022-09-25T04:38:44.406Z,35.63
2022-09-25T04:39:06.563Z,35.67
2022-09-25T04:39:28.724Z,35.08
2022-09-25T04:39:50.789Z,37.55
2022-09-25T04:40:12.614Z,33.20
2022-09-25T04:40:34.953Z,38.30
2022-09-25T04:40:58.088Z,37.40
2022-09-25T04:41:20.363Z,38.97
2022-09-25T04:41:43.403Z,36.70
2022-09-25T04:42:05.528Z,36.72
2022-09-25T04:42:27.511Z,39.17
2022-09-25T04:42:49.514Z,37.42
2022-09-25T04:43:11.758Z,44.20
2022-09-25T04:43:34.376Z,38.28
2022-09-25T04:43:56.265Z,38.17
2022-09-25T04:44:18.053Z,40.42
2022-09-25T04:44:40.150Z,37.40
2022-09-25T04:45:02.257Z,35.15
2022-09-25T04:45:24.881Z,38.08
2022-09-25T04:45:48.113Z,36.08
2022-09-25T04:46:16.779Z,35.20
2022-09-25T04:46:45.713Z,36.67
2022-09-25T04:47:07.840Z,37.42
2022-09-25T04:47:33.001Z,34.75
2022-09-25T04:47:55.673Z,40.30
2022-09-25T04:48:17.687Z,39.58
2022-09-25T04:48:39.712Z,41.58
2022-09-25T04:49:01.779Z,38.17
2022-09-25T04:49:24.961Z,39.00
2022-09-25T04:49:47.343Z,38.28
2022-09-25T04:50:09.792Z,40.22
2022-09-25T04:50:32.651Z,41.42
2022-09-25T04:50:54.605Z,40.95
2022-09-25T04:51:16.401Z,41.80
2022-09-25T04:51:41.346Z,41.28
2022-09-25T04:52:03.235Z,43.08
2022-09-25T04:52:25.029Z,44.50
2022-09-25T04:52:47.537Z,44.67
2022-09-25T04:53:09.318Z,42.15
2022-09-25T04:53:35.075Z,40.20
2022-09-25T04:53:57.010Z,45.67
2022-09-25T04:54:19.016Z,43.10
2022-09-25T04:54:41.318Z,42.17
2022-09-25T04:55:04.334Z,45.13
2022-09-25T04:55:27.567Z,43.45
2022-09-25T04:55:49.464Z,40.97
2022-09-25T04:56:15.860Z,43.13
2022-09-25T04:56:38.327Z,42.05
2022-09-25T04:57:00.341Z,39.97
2022-09-25T04:57:53.502Z,45.70
2022-09-25T04:58:06.270Z,45.17
2022-09-25T04:58:28.497Z,45.03
2022-09-25T04:58:50.418Z,49.70
2022-09-25T04:59:12.260Z,47.13
2022-09-25T04:59:34.138Z,47.30
2022-09-25T04:59:55.944Z,46.60
2022-09-25T05:00:19.867Z,50.85
2022-09-25T05:00:42.726Z,49.47
2022-09-25T05:01:06.846Z,50.35
2022-09-25T05:01:28.942Z,47.58
2022-09-25T05:01:51.183Z,46.40
2022-09-25T05:02:14.521Z,47.65
2022-09-25T05:02:44.616Z,49.97
2022-09-25T05:03:07.060Z,46.63
2022-09-25T05:03:30.323Z,49.38
2022-09-25T05:03:56.012Z,50.80
2022-09-25T05:04:18.074Z,51.50
2022-09-25T05:04:40.540Z,48.45
2022-09-25T05:05:02.734Z,48.15
2022-09-25T05:05:28.550Z,48.83
2022-09-25T05:05:50.382Z,46.75
2022-09-25T05:06:12.270Z,49.72
2022-09-25T05:06:34.585Z,45.50
2022-09-25T05:06:56.649Z,45.10
2022-09-25T05:07:22.453Z,49.22
2022-09-25T05:07:58.873Z,49.25
2022-09-25T05:08:25.958Z,43.08
2022-09-25T05:08:51.172Z,44.03
2022-09-25T05:09:15.807Z,46.08
2022-09-25T05:09:37.555Z,46.00
2022-09-25T05:09:59.672Z,46.08
2022-09-25T05:10:23.396Z,43.60
2022-09-25T05:10:46.211Z,42.92
2022-09-25T05:11:09.971Z,40.22
2022-09-25T05:11:31.852Z,47.03
2022-09-25T05:11:53.603Z,44.35
2022-09-25T05:12:15.922Z,45.45
2022-09-25T05:12:38.211Z,44.38
2022-09-25T05:13:04.601Z,45.80
2022-09-25T05:13:28.205Z,45.13
2022-09-25T05:13:55.807Z,44.53
2022-09-25T05:14:22.800Z,43.75
2022-09-25T05:14:46.816Z,46.90
2022-09-25T05:15:10.348Z,48.85
2022-09-25T05:15:36.463Z,46.83
2022-09-25T05:15:59.078Z,47.85
2022-09-25T05:16:29.062Z,43.63
2022-09-25T05:16:55.436Z,48.15
2022-09-25T05:17:20.433Z,47.75
2022-09-25T05:17:52.807Z,46.63
2022-09-25T05:18:28.000Z,48.67
2022-09-25T05:18:49.863Z,45.50
2022-09-25T05:19:11.887Z,43.63
2022-09-25T05:19:35.518Z,44.65
2022-09-25T05:19:57.295Z,44.83
2022-09-25T05:20:27.183Z,46.90
2022-09-25T05:21:08.789Z,41.60
2022-09-25T05:21:30.631Z,42.75
2022-09-25T05:21:54.030Z,45.65
2022-09-25T05:22:15.796Z,43.70
2022-09-25T05:22:40.605Z,43.63
2022-09-25T05:23:03.585Z,42.22
2022-09-25T05:23:25.395Z,42.08
2022-09-25T05:23:49.868Z,43.15
2022-09-25T05:24:13.517Z,41.08
2022-09-25T05:24:35.462Z,44.15
2022-09-25T05:24:59.196Z,45.15
2022-09-25T05:25:23.192Z,45.17
2022-09-25T05:25:51.392Z,41.70
2022-09-25T05:26:15.675Z,44.97
2022-09-25T05:26:49.511Z,42.50
2022-09-25T05:27:13.129Z,39.50
2022-09-25T05:27:35.127Z,39.50
2022-09-25T05:27:59.663Z,42.47
2022-09-25T05:28:23.770Z,45.20
2022-09-25T05:28:50.342Z,42.25
2022-09-25T05:29:12.414Z,42.50
2022-09-25T05:29:34.555Z,43.00
2022-09-25T05:29:56.910Z,41.25
2022-09-25T05:30:19.915Z,38.80
2022-09-25T05:30:44.266Z,40.00
2022-09-25T05:31:06.512Z,40.47
2022-09-25T05:31:42.773Z,41.33
2022-09-25T05:32:04.827Z,39.67
2022-09-25T05:32:31.146Z,40.95
2022-09-25T05:32:54.481Z,41.03
2022-09-25T05:33:16.878Z,39.55
2022-09-25T05:33:38.745Z,43.50
2022-09-25T05:34:03.564Z,42.78
2022-09-25T05:34:28.138Z,41.25
2022-09-25T05:34:50.306Z,41.08
2022-09-25T05:35:13.329Z,41.55
2022-09-25T05:35:35.537Z,45.42
2022-09-25T05:36:04.430Z,40.80
2022-09-25T05:36:26.691Z,42.00
2022-09-25T05:36:51.029Z,41.85
2022-09-25T05:37:13.387Z,41.70
2022-09-25T05:37:35.945Z,42.65
2022-09-25T05:37:58.497Z,42.03
2022-09-25T05:38:20.671Z,41.50
2022-09-25T05:38:43.268Z,39.58
2022-09-25T05:39:07.961Z,38.65
2022-09-25T05:39:34.529Z,41.97
2022-09-25T05:40:00.180Z,37.63
2022-09-25T05:40:31.147Z,41.60
2022-09-25T05:40:55.281Z,40.38
2022-09-25T05:41:17.328Z,40.55
2022-09-25T05:41:43.072Z,41.10
2022-09-25T05:42:19.229Z,39.35
2022-09-25T05:42:41.251Z,38.15
2022-09-25T05:43:03.105Z,39.40
2022-09-25T05:43:56.650Z,37.08
2022-09-25T05:44:16.727Z,36.85
2022-09-25T05:44:39.631Z,33.05
2022-09-25T05:45:07.255Z,35.88
2022-09-25T05:45:29.387Z,35.80
2022-09-25T05:45:55.893Z,34.70
2022-09-25T05:46:31.437Z,35.22
2022-09-25T05:47:01.618Z,38.28
2022-09-25T05:47:24.145Z,29.65
2022-09-25T05:48:10.997Z,29.60
2022-09-25T05:48:39.922Z,30.92
2022-09-25T05:49:05.252Z,31.23
2022-09-25T05:49:34.299Z,28.80
2022-09-25T05:50:06.580Z,26.10
2022-09-25T05:50:55.503Z,27.45
2022-09-25T05:51:23.093Z,29.65
2022-09-25T05:51:45.449Z,31.40